الصفحة الرئيسية
METAR-TAF:

METAR-TAF

مطار :

كوبنهاغن, الدنمارك

مطار كوبنهاغن

دائرة عرض: 55-37N, خط طول: 012-39E, ارتفاع: 5 متر

مراقبة الطقس الحالي

تاريخ ووقت الإصدار 39 دقيقة قبل الساعة 21:20UTC
ريح 8 عقدة من الجنوب/الجنوب الغربي
درجة الحرارة 1°درجة مئوية
الرطوبة 86%
ضغط 1024 hPa
الرؤية 10 كم أو أكثر
الغيوم لا تقل 1500 م ولا وجود لمزنة ركامية السحاب الأسود

METAR: EKCH 182120Z 20008KT CAVOK 01/M01 Q1024 NOSIG

زمن: 22:59 (21:59 UTC)

توقعات

تاريخ ووقت الإصدار 4ساعات و 52 دقيقة قبل الساعة 17:07UTC
التوقعات صالحة من18 الساعة 18 UTC إلى 19 الساعة 18 UTC
ريح 8 عقدة من الجنوب الغربي
الرؤية 10 كم أو أكثر
غيوم قليلة على ارتفاع 3000 قدم
أصبح
من 19 الساعة 10 UTC إلى 19 الساعة 12 UTC
غيوم مفككة على ارتفاع 1000 قدم
مؤقت
من 19 الساعة 12 UTC إلى 19 الساعة 18 UTC
غيوم مفككة على ارتفاع 1500 قدم

TAF: EKCH 181707Z 1818/1918 22008KT 9999 FEW030 BECMG 1910/1912 BKN010 TEMPO 1912/1918 BKN015

أرصاد الطقس والتوقعات من أكثر من 4000 مطار (تقارير الطقس للمطار METAR والتنبؤ بالطقس بالمطارTAF).

المحطات المتاحة هي النقط الصفراء والحمراء على الخريطة.

حرك المؤشر فوق النقطة لمعرفة اسم المحطة.

ثم انقر لمعرفة أرصاد وتوقعات الطقس.

لتغيير الخارطة: اضغط على الأزرار الخضراء مع رمز الصليب الأسود للتكبير. على الزر الأخضر مع شرطة للتصغير، أو على الأسهم الخضراء للخرائط المجاورة.


METAR-TAF: